Janice Roberts — WDD6360 — position and weather

sailwx.info

Track history (hours):
 
Tides and Currents Weather Stations Pressure Air Temp Water Temp Dewpoint Dewpoint Depression Visibility Wind Speed Wind Dir Waves Ship Positions

Janice Roberts

Owner: Florida Marine, LLC, Mandeville, LA. More information available from US FCC via Universal Licensing System and Coast Guard Vessel Documentation Center.

Last reported at 2018-May-28 01:00 UTC. Time now 2018-May-28 01:01 UTC.
Position N 30°01' W 093°59'.

Length 27 m; draft 3.5 m.

Type: Towing. MMSI: 367171930.

Date/timePositionNaut miles runAvg speedWind from/ knotsBaromVisibWave heightAir tempDewpointWater temp
2018-May-28 01:00N 30°01' W 093°59'0 0.0
2018-May-28 00:30N 30°01' W 093°59'0 0.0
2018-May-28 00:01N 30°01' W 093°59'0 0.0
2018-May-27 23:30N 30°01' W 093°59'0 0.0
2018-May-27 23:00N 30°01' W 093°59'0 0.0
2018-May-27 22:31N 30°01' W 093°59'0 0.0
2018-May-27 22:01N 30°01' W 093°59'0 0.0
2018-May-27 21:30N 30°01' W 093°59'0 0.0
2018-May-27 21:01N 30°01' W 093°59'0 0.0
2018-May-27 20:30N 30°01' W 093°59'0 0.0
2018-May-27 20:00N 30°01' W 093°59'0 0.0
2018-May-27 19:31N 30°01' W 093°59'0 0.1
2018-May-27 19:01N 30°01' W 093°59'1 2.3
2018-May-27 18:30N 30°01' W 093°58'2 4.7
2018-May-27 18:01N 29°59' W 093°56'3 5.1
2018-May-27 17:30N 29°59' W 093°53'2 3.9
2018-May-27 17:00N 29°58' W 093°51'3 5.2
2018-May-27 16:31N 29°59' W 093°48'3 5.7
2018-May-27 16:00N 30°01' W 093°45'0 0.5
2018-May-27 15:31N 30°01' W 093°45'3 5.4
2018-May-27 15:00N 30°03' W 093°43'2 4.6
2018-May-27 14:30N 30°04' W 093°40'2 4.2
2018-May-27 14:01N 30°04' W 093°38'3 5.5
2018-May-27 13:30N 30°04' W 093°35'3 6.0
2018-May-27 13:01N 30°04' W 093°31'3 6.2
2018-May-27 12:31N 30°04' W 093°28'3 6.5
2018-May-27 12:01N 30°04' W 093°24'3 5.5
2018-May-27 11:30N 30°04' W 093°21'3 5.6
2018-May-27 11:00N 30°06' W 093°19'2 3.1
2018-May-27 10:30N 30°05' W 093°17'1 1.8
2018-May-27 10:01N 30°05' W 093°17'0 0.7
2018-May-27 09:31N 30°04' W 093°16'0 0.9
2018-May-27 09:01N 30°04' W 093°16'0 0.1
2018-May-27 08:30N 30°04' W 093°16'1 1.8
2018-May-27 08:01N 30°03' W 093°16'0 0.8
2018-May-27 07:31N 30°03' W 093°16'0 0.0
2018-May-27 07:01N 30°03' W 093°16'0 0.0
2018-May-27 06:31N 30°03' W 093°16'0 0.0
2018-May-27 06:00N 30°03' W 093°16'0 0.0
2018-May-27 05:30N 30°03' W 093°16'0 0.0
2018-May-27 05:00N 30°03' W 093°16'0 0.0
2018-May-27 04:31N 30°03' W 093°16'0 0.0
2018-May-27 04:00N 30°03' W 093°16'0 0.0
2018-May-27 03:31N 30°03' W 093°16'0 0.0
2018-May-27 03:01N 30°03' W 093°16'0 0.0
2018-May-27 02:31N 30°03' W 093°16'1 2.0
2018-May-27 02:01N 30°02' W 093°15'2 4.7
2018-May-27 01:30N 29°60' W 093°13'1 2.0
2018-May-27 00:59N 29°59' W 093°13'0 0.0
2018-May-27 00:27N 29°59' W 093°13'0 0.0
2018-May-27 00:01N 29°59' W 093°13'0 0.0
2018-May-26 23:30N 29°59' W 093°13'0 0.0
2018-May-26 23:00N 29°59' W 093°13'0 0.1
2018-May-26 22:30N 29°59' W 093°12'0 0.1
2018-May-26 22:00N 29°59' W 093°13'0 0.0
2018-May-26 21:30N 29°59' W 093°13'0 0.0
2018-May-26 21:00N 29°59' W 093°13'0 0.0
2018-May-26 20:30N 29°59' W 093°13'0 0.1
2018-May-26 19:59N 29°59' W 093°12'0 0.0
2018-May-26 19:31N 29°59' W 093°12'1 1.5
2018-May-26 19:00N 29°59' W 093°12'3 5.2
2018-May-26 18:30N 29°57' W 093°10'1 1.3
2018-May-26 18:00N 29°56' W 093°09'3 5.2
2018-May-26 17:30N 29°56' W 093°06'2 3.4
2018-May-26 17:00N 29°56' W 093°04'1 1.6
2018-May-26 16:30N 29°56' W 093°04'0 0.0
2018-May-26 16:01N 29°56' W 093°04'0 0.0
2018-May-26 15:30N 29°56' W 093°04'0 0.0
2018-May-26 14:59N 29°56' W 093°04'0 0.0
2018-May-26 14:31N 29°56' W 093°04'0 0.0
2018-May-26 14:00N 29°56' W 093°04'0 0.0
2018-May-26 13:31N 29°56' W 093°04'0 0.0
2018-May-26 13:00N 29°56' W 093°04'0 0.0
2018-May-26 12:30N 29°56' W 093°04'31 2.6
2018-May-26 00:41N 29°54' W 092°28'1 3.0
2018-May-26 00:30N 29°54' W 092°27'3 5.5
2018-May-26 00:01N 29°53' W 092°24'3 5.3
2018-May-25 23:29N 29°51' W 092°22'3 5.4
2018-May-25 23:00N 29°50' W 092°19'3 5.2
2018-May-25 22:31N 29°49' W 092°17'3 5.3
2018-May-25 22:00N 29°48' W 092°14'1 2.8
2018-May-25 21:30N 29°47' W 092°12'1 2.4
2018-May-25 21:01N 29°47' W 092°11'0 0.0
2018-May-25 20:30N 29°47' W 092°11'0 0.1
2018-May-25 20:00N 29°47' W 092°11'0 0.0
2018-May-25 19:31N 29°47' W 092°11'0 0.7
2018-May-25 19:01N 29°47' W 092°11'0 0.1
2018-May-25 18:30N 29°47' W 092°11'0 0.0
2018-May-25 18:00N 29°47' W 092°11'0 0.0
2018-May-25 17:31N 29°47' W 092°11'0 0.0
2018-May-25 17:01N 29°47' W 092°11'0 0.0
2018-May-25 16:30N 29°47' W 092°11'0 0.0
2018-May-25 16:00N 29°47' W 092°11'2 3.8
2018-May-25 15:31N 29°47' W 092°09'3 6.0
2018-May-25 15:01N 29°48' W 092°05'3 5.8
2018-May-25 14:31N 29°49' W 092°02'3 5.5
2018-May-25 14:01N 29°50' W 091°59'3 5.9
2018-May-25 13:29N 29°51' W 091°56'  
2018-May-18 11:19N 29°48' W 092°14'1 2.3
2018-May-18 10:59N 29°48' W 092°15'0 0.0
2018-May-18 10:30N 29°48' W 092°15'0 0.3
2018-May-18 09:58N 29°48' W 092°15'2 4.0
2018-May-18 09:30N 29°49' W 092°17'1 2.8
2018-May-18 08:58N 29°50' W 092°18'2 3.6
2018-May-18 08:30N 29°50' W 092°20'2 3.7
2018-May-18 08:00N 29°51' W 092°22'2 3.9
2018-May-18 07:29N 29°53' W 092°23'2 3.9
2018-May-18 06:58N 29°53' W 092°25'2 4.0
2018-May-18 06:29N 29°54' W 092°28'2 3.9
2018-May-18 06:00N 29°54' W 092°30'2 4.0
2018-May-18 05:26N 29°54' W 092°32'2 4.1
2018-May-18 05:00N 29°55' W 092°34'2 3.4
2018-May-18 04:30N 29°55' W 092°36'2 4.3
2018-May-18 04:00N 29°56' W 092°39'2 4.0
2018-May-18 03:30N 29°56' W 092°41'2 4.1
2018-May-18 03:00N 29°57' W 092°43'2 3.8
2018-May-18 02:30N 29°58' W 092°45'2 4.1
2018-May-18 01:59N 29°58' W 092°47'2 4.2
2018-May-18 01:30N 29°58' W 092°50'  
Track history (hours):
 
Tides and Currents Weather Stations Pressure Air Temp Water Temp Dewpoint Dewpoint Depression Visibility Wind Speed Wind Dir Waves Ship Positions

Janice Roberts

Owner: Florida Marine, LLC, Mandeville, LA. More information available from US FCC via Universal Licensing System and Coast Guard Vessel Documentation Center.

Last reported at 2018-May-28 01:00 UTC. Time now 2018-May-28 01:01 UTC.
Position N 30°01' W 093°59'.

Length 27 m; draft 3.5 m.

Type: Towing. MMSI: 367171930.

Date/timePositionNaut miles runAvg speedWind from/ knotsBaromVisibWave heightAir tempDewpointWater temp
2018-May-28 01:00N 30°01' W 093°59'0 0.0
2018-May-28 00:30N 30°01' W 093°59'0 0.0
2018-May-28 00:01N 30°01' W 093°59'0 0.0
2018-May-27 23:30N 30°01' W 093°59'0 0.0
2018-May-27 23:00N 30°01' W 093°59'0 0.0
2018-May-27 22:31N 30°01' W 093°59'0 0.0
2018-May-27 22:01N 30°01' W 093°59'0 0.0
2018-May-27 21:30N 30°01' W 093°59'0 0.0
2018-May-27 21:01N 30°01' W 093°59'0 0.0
2018-May-27 20:30N 30°01' W 093°59'0 0.0
2018-May-27 20:00N 30°01' W 093°59'0 0.0
2018-May-27 19:31N 30°01' W 093°59'0 0.1
2018-May-27 19:01N 30°01' W 093°59'1 2.3
2018-May-27 18:30N 30°01' W 093°58'2 4.7
2018-May-27 18:01N 29°59' W 093°56'3 5.1
2018-May-27 17:30N 29°59' W 093°53'2 3.9
2018-May-27 17:00N 29°58' W 093°51'3 5.2
2018-May-27 16:31N 29°59' W 093°48'3 5.7
2018-May-27 16:00N 30°01' W 093°45'0 0.5
2018-May-27 15:31N 30°01' W 093°45'3 5.4
2018-May-27 15:00N 30°03' W 093°43'2 4.6
2018-May-27 14:30N 30°04' W 093°40'2 4.2
2018-May-27 14:01N 30°04' W 093°38'3 5.5
2018-May-27 13:30N 30°04' W 093°35'3 6.0
2018-May-27 13:01N 30°04' W 093°31'3 6.2
2018-May-27 12:31N 30°04' W 093°28'3 6.5
2018-May-27 12:01N 30°04' W 093°24'3 5.5
2018-May-27 11:30N 30°04' W 093°21'3 5.6
2018-May-27 11:00N 30°06' W 093°19'2 3.1
2018-May-27 10:30N 30°05' W 093°17'1 1.8
2018-May-27 10:01N 30°05' W 093°17'0 0.7
2018-May-27 09:31N 30°04' W 093°16'0 0.9
2018-May-27 09:01N 30°04' W 093°16'0 0.1
2018-May-27 08:30N 30°04' W 093°16'1 1.8
2018-May-27 08:01N 30°03' W 093°16'0 0.8
2018-May-27 07:31N 30°03' W 093°16'0 0.0
2018-May-27 07:01N 30°03' W 093°16'0 0.0
2018-May-27 06:31N 30°03' W 093°16'0 0.0
2018-May-27 06:00N 30°03' W 093°16'0 0.0
2018-May-27 05:30N 30°03' W 093°16'0 0.0
2018-May-27 05:00N 30°03' W 093°16'0 0.0
2018-May-27 04:31N 30°03' W 093°16'0 0.0
2018-May-27 04:00N 30°03' W 093°16'0 0.0
2018-May-27 03:31N 30°03' W 093°16'0 0.0
2018-May-27 03:01N 30°03' W 093°16'0 0.0
2018-May-27 02:31N 30°03' W 093°16'1 2.0
2018-May-27 02:01N 30°02' W 093°15'2 4.7
2018-May-27 01:30N 29°60' W 093°13'1 2.0
2018-May-27 00:59N 29°59' W 093°13'0 0.0
2018-May-27 00:27N 29°59' W 093°13'0 0.0
2018-May-27 00:01N 29°59' W 093°13'0 0.0
2018-May-26 23:30N 29°59' W 093°13'0 0.0
2018-May-26 23:00N 29°59' W 093°13'0 0.1
2018-May-26 22:30N 29°59' W 093°12'0 0.1
2018-May-26 22:00N 29°59' W 093°13'0 0.0
2018-May-26 21:30N 29°59' W 093°13'0 0.0
2018-May-26 21:00N 29°59' W 093°13'0 0.0
2018-May-26 20:30N 29°59' W 093°13'0 0.1
2018-May-26 19:59N 29°59' W 093°12'0 0.0
2018-May-26 19:31N 29°59' W 093°12'1 1.5
2018-May-26 19:00N 29°59' W 093°12'3 5.2
2018-May-26 18:30N 29°57' W 093°10'1 1.3
2018-May-26 18:00N 29°56' W 093°09'3 5.2
2018-May-26 17:30N 29°56' W 093°06'2 3.4
2018-May-26 17:00N 29°56' W 093°04'1 1.6
2018-May-26 16:30N 29°56' W 093°04'0 0.0
2018-May-26 16:01N 29°56' W 093°04'0 0.0
2018-May-26 15:30N 29°56' W 093°04'0 0.0
2018-May-26 14:59N 29°56' W 093°04'0 0.0
2018-May-26 14:31N 29°56' W 093°04'0 0.0
2018-May-26 14:00N 29°56' W 093°04'0 0.0
2018-May-26 13:31N 29°56' W 093°04'0 0.0
2018-May-26 13:00N 29°56' W 093°04'0 0.0
2018-May-26 12:30N 29°56' W 093°04'31 2.6
2018-May-26 00:41N 29°54' W 092°28'1 3.0
2018-May-26 00:30N 29°54' W 092°27'3 5.5
2018-May-26 00:01N 29°53' W 092°24'3 5.3
2018-May-25 23:29N 29°51' W 092°22'3 5.4
2018-May-25 23:00N 29°50' W 092°19'3 5.2
2018-May-25 22:31N 29°49' W 092°17'3 5.3
2018-May-25 22:00N 29°48' W 092°14'1 2.8
2018-May-25 21:30N 29°47' W 092°12'1 2.4
2018-May-25 21:01N 29°47' W 092°11'0 0.0
2018-May-25 20:30N 29°47' W 092°11'0 0.1
2018-May-25 20:00N 29°47' W 092°11'0 0.0
2018-May-25 19:31N 29°47' W 092°11'0 0.7
2018-May-25 19:01N 29°47' W 092°11'0 0.1
2018-May-25 18:30N 29°47' W 092°11'0 0.0
2018-May-25 18:00N 29°47' W 092°11'0 0.0
2018-May-25 17:31N 29°47' W 092°11'0 0.0
2018-May-25 17:01N 29°47' W 092°11'0 0.0
2018-May-25 16:30N 29°47' W 092°11'0 0.0
2018-May-25 16:00N 29°47' W 092°11'2 3.8
2018-May-25 15:31N 29°47' W 092°09'3 6.0
2018-May-25 15:01N 29°48' W 092°05'3 5.8
2018-May-25 14:31N 29°49' W 092°02'3 5.5
2018-May-25 14:01N 29°50' W 091°59'3 5.9
2018-May-25 13:29N 29°51' W 091°56'  
2018-May-18 11:19N 29°48' W 092°14'1 2.3
2018-May-18 10:59N 29°48' W 092°15'0 0.0
2018-May-18 10:30N 29°48' W 092°15'0 0.3
2018-May-18 09:58N 29°48' W 092°15'2 4.0
2018-May-18 09:30N 29°49' W 092°17'1 2.8
2018-May-18 08:58N 29°50' W 092°18'2 3.6
2018-May-18 08:30N 29°50' W 092°20'2 3.7
2018-May-18 08:00N 29°51' W 092°22'2 3.9
2018-May-18 07:29N 29°53' W 092°23'2 3.9
2018-May-18 06:58N 29°53' W 092°25'2 4.0
2018-May-18 06:29N 29°54' W 092°28'2 3.9
2018-May-18 06:00N 29°54' W 092°30'2 4.0
2018-May-18 05:26N 29°54' W 092°32'2 4.1
2018-May-18 05:00N 29°55' W 092°34'2 3.4
2018-May-18 04:30N 29°55' W 092°36'2 4.3
2018-May-18 04:00N 29°56' W 092°39'2 4.0
2018-May-18 03:30N 29°56' W 092°41'2 4.1
2018-May-18 03:00N 29°57' W 092°43'2 3.8
2018-May-18 02:30N 29°58' W 092°45'2 4.1
2018-May-18 01:59N 29°58' W 092°47'2 4.2
2018-May-18 01:30N 29°58' W 092°50'  

Dump ship's entire track history